Time;durP1;ratioP1;P1;durP2;ratioP2;P2;SDS_P1;SDS_P2;PMS_P1;PMS_P2;Temp;Humidity;BMP_temperature;BMP_pressure;BME280_temperature;BME280_humidity;BME280_pressure;Samples;Min_cycle;Max_cycle;Signal;HPM_P1;HPM_P2
2023/03/25 00:08:42;;;;;;;1.17;0.40;;;;;;;7.03;57.42;99244.38;19983951;29;20212;-86
2023/03/25 00:18:46;;;;;;;2.80;0.20;;;;;;;7.03;57.02;99233.97;19952345;29;20231;-84
2023/03/25 00:28:48;;;;;;;0.63;0.20;;;;;;;7.04;55.98;99229.16;19967215;29;20590;-84
2023/03/25 00:38:51;;;;;;;3.37;0.80;;;;;;;6.95;56.01;99236.88;19967205;29;20236;-84
2023/03/25 00:48:54;;;;;;;3.07;0.30;;;;;;;6.86;55.74;99227.69;19951529;29;20260;-86
2023/03/25 00:58:56;;;;;;;2.67;0.43;;;;;;;7.23;54.79;99223.84;19965882;29;20220;-84
2023/03/25 01:09:00;;;;;;;2.77;0.40;;;;;;;7.01;55.66;99235.47;19965234;29;20240;-84
2023/03/25 01:19:03;;;;;;;3.80;0.43;;;;;;;7.49;53.84;99228.38;19963597;29;20236;-85
2023/03/25 01:29:05;;;;;;;2.53;0.50;;;;;;;7.73;53.88;99225.59;19966663;29;20196;-85
2023/03/25 01:39:07;;;;;;;3.15;0.40;;;;;;;7.38;55.05;99223.16;19963747;29;20253;-83
2023/03/25 01:49:15;;;;;;;1.60;1.23;;;;;;;7.02;55.65;99206.25;19948243;29;20193;-85
2023/03/25 01:59:20;;;;;;;3.30;0.60;;;;;;;7.50;53.39;99208.31;19947017;29;20228;-85
2023/03/25 02:09:25;;;;;;;4.37;0.80;;;;;;;7.62;52.22;99201.91;19962282;29;20185;-85
2023/03/25 02:20:18;;;;;;;4.67;0.70;;;;;;;7.61;53.10;99197.47;19960239;29;20231;-85
2023/03/25 02:30:21;;;;;;;2.60;0.70;;;;;;;7.34;52.27;99204.59;19940759;29;20515;-85
2023/03/25 02:40:46;;;;;;;4.60;0.50;;;;;;;7.04;52.92;99203.91;19960691;29;20196;-85
2023/03/25 02:50:51;;;;;;;1.87;0.40;;;;;;;7.35;51.38;99200.59;19958777;29;20276;-83
2023/03/25 03:00:57;;;;;;;2.50;0.37;;;;;;;7.12;51.96;99202.16;19959375;29;20658;-84
2023/03/25 03:11:13;;;;;;;2.50;0.43;;;;;;;7.01;53.04;99199.00;19960404;29;20272;-83
2023/03/25 03:21:25;;;;;;;1.17;0.30;;;;;;;7.12;52.31;99185.34;19959867;29;20356;-83
2023/03/25 03:31:40;;;;;;;4.13;0.40;;;;;;;6.82;51.94;99198.72;19958622;29;20223;-85
2023/03/25 03:42:13;;;;;;;2.80;0.45;;;;;;;7.46;50.58;99179.31;19944318;29;20234;-84
2023/03/25 03:52:36;;;;;;;3.23;0.40;;;;;;;6.65;55.49;99199.69;19956517;29;20220;-84
2023/03/25 04:02:46;;;;;;;1.40;0.60;;;;;;;5.85;58.66;99205.34;19937651;29;20432;-85
2023/03/25 04:12:51;;;;;;;2.20;0.60;;;;;;;6.34;57.16;99200.06;19972605;29;20223;-83
2023/03/25 04:22:53;;;;;;;2.27;0.50;;;;;;;7.00;54.70;99206.59;19956598;29;20240;-82
2023/03/25 04:32:56;;;;;;;3.53;0.47;;;;;;;6.34;56.17;99200.06;19981333;29;20538;-83
2023/03/25 04:42:58;;;;;;;5.73;0.63;;;;;;;6.48;55.60;99194.19;19983319;29;20232;-83
2023/03/25 04:53:00;;;;;;;4.93;0.67;;;;;;;6.62;55.12;99198.38;19973861;29;20257;-83
2023/03/25 05:03:03;;;;;;;2.67;0.57;;;;;;;6.21;57.35;99187.13;19967726;29;20230;-83
2023/03/25 05:13:06;;;;;;;1.83;0.70;;;;;;;6.37;57.20;99179.75;19964304;29;20220;-82
2023/03/25 05:23:11;;;;;;;3.77;0.83;;;;;;;6.69;56.29;99176.22;19994002;29;20236;-83
2023/03/25 05:33:15;;;;;;;2.43;0.57;;;;;;;6.62;55.83;99195.56;19953774;29;20690;-82
2023/03/25 05:43:21;;;;;;;3.83;0.93;;;;;;;6.66;55.60;99201.31;19943557;29;20241;-83
2023/03/25 05:53:23;;;;;;;3.33;0.60;;;;;;;6.18;58.15;99207.44;19964313;29;20249;-83
2023/03/25 06:03:26;;;;;;;3.93;0.70;;;;;;;6.60;56.24;99203.50;19961065;29;20196;-85
2023/03/25 06:13:28;;;;;;;3.67;0.60;;;;;;;6.22;57.88;99209.22;20035511;29;20227;-83
2023/03/25 06:23:34;;;;;;;4.67;0.50;;;;;;;6.23;57.96;99198.81;19967353;29;20253;-84
2023/03/25 06:33:36;;;;;;;3.50;0.80;;;;;;;6.22;57.47;99202.78;19957040;29;20686;-83
2023/03/25 06:43:45;;;;;;;2.57;0.70;;;;;;;6.59;57.63;99229.06;20028432;29;20608;-84
2023/03/25 06:53:50;;;;;;;3.23;0.80;;;;;;;6.12;60.24;99243.25;19960194;29;20235;-83
2023/03/25 07:03:53;;;;;;;4.87;1.00;;;;;;;6.40;60.59;99240.75;19964455;29;20196;-83
2023/03/25 07:13:55;;;;;;;4.37;0.87;;;;;;;6.85;58.80;99240.88;19964423;29;20224;-83
2023/03/25 07:24:00;;;;;;;4.80;0.70;;;;;;;6.48;59.24;99234.25;19995726;29;20236;-83
2023/03/25 07:34:03;;;;;;;3.90;0.50;;;;;;;6.19;59.84;99248.34;20009620;29;20264;-83
2023/03/25 07:44:05;;;;;;;4.83;0.77;;;;;;;7.30;56.48;99238.13;19986018;29;20272;-84
2023/03/25 07:54:10;;;;;;;4.67;0.70;;;;;;;7.67;55.84;99247.47;19957664;29;20224;-84
2023/03/25 08:04:12;;;;;;;4.97;1.50;;;;;;;6.95;55.42;99253.69;19970983;29;20208;-83
2023/03/25 08:14:15;;;;;;;5.60;1.07;;;;;;;6.98;54.97;99273.44;19945429;29;20253;-83
2023/03/25 08:24:17;;;;;;;3.53;0.73;;;;;;;6.97;54.44;99279.41;19940281;29;20236;-83
2023/03/25 08:34:26;;;;;;;6.60;1.00;;;;;;;7.04;53.77;99269.28;19936229;29;20228;-81
2023/03/25 08:44:31;;;;;;;4.33;1.20;;;;;;;7.56;51.83;99267.91;19964445;29;20212;-82
2023/03/25 08:54:33;;;;;;;6.73;0.97;;;;;;;7.92;50.43;99265.16;19944615;29;20255;-81
2023/03/25 09:04:37;;;;;;;4.30;1.20;;;;;;;6.94;53.18;99268.88;19918170;29;20264;-81
2023/03/25 09:14:40;;;;;;;4.43;0.98;;;;;;;7.95;49.55;99261.66;19947050;29;20252;-86
2023/03/25 09:24:42;;;;;;;5.77;1.30;;;;;;;7.52;52.49;99267.78;19924046;29;20259;-83
2023/03/25 09:34:44;;;;;;;9.53;1.60;;;;;;;7.11;53.36;99268.72;19915514;29;20292;-82
2023/03/25 09:45:09;;;;;;;8.37;1.20;;;;;;;7.23;54.49;99260.31;19933637;29;20494;-84
2023/03/25 09:55:20;;;;;;;7.30;1.40;;;;;;;7.74;54.15;99275.00;19950989;29;20860;-82
2023/03/25 10:05:46;;;;;;;8.33;1.43;;;;;;;8.06;53.59;99267.63;19939162;29;20733;-83
2023/03/25 10:15:56;;;;;;;7.90;1.40;;;;;;;8.37;52.39;99267.84;19932108;29;20231;-81
2023/03/25 10:26:12;;;;;;;6.97;1.67;;;;;;;8.76;50.57;99249.41;19962951;29;20240;-83
2023/03/25 10:36:16;;;;;;;8.45;1.55;;;;;;;8.68;49.93;99241.91;19932462;29;20315;-83
2023/03/25 10:46:45;;;;;;;8.83;1.87;;;;;;;8.51;52.95;99278.75;19934049;29;20196;-85
2023/03/25 10:56:52;;;;;;;8.83;2.10;;;;;;;7.44;60.26;99288.38;19932148;29;20280;-85
2023/03/25 11:06:56;;;;;;;9.30;1.07;;;;;;;8.71;52.46;99258.09;19938491;29;20248;-82
2023/03/25 11:17:02;;;;;;;7.87;1.03;;;;;;;8.82;50.76;99272.47;19937360;29;20262;-76
2023/03/25 11:27:06;;;;;;;14.87;2.77;;;;;;;8.68;54.57;99281.28;19984737;29;20242;-82
2023/03/25 11:37:21;;;;;;;7.53;1.57;;;;;;;8.11;54.15;99290.72;19952482;29;20633;-78
2023/03/25 11:47:43;;;;;;;6.00;0.98;;;;;;;8.69;52.65;99282.94;19946601;29;20208;-81
2023/03/25 11:57:46;;;;;;;5.93;1.50;;;;;;;9.03;51.57;99277.94;19959797;29;20259;-78
2023/03/25 12:07:50;;;;;;;3.83;1.23;;;;;;;9.50;50.18;99284.50;19987464;29;20769;-80
2023/03/25 12:18:38;;;;;;;8.17;1.73;;;;;;;9.03;51.23;99272.28;19981144;29;20267;-82
2023/03/25 12:29:01;;;;;;;5.00;1.07;;;;;;;8.59;54.43;99276.94;19821868;29;20212;-85
2023/03/25 12:39:50;;;;;;;8.90;1.17;;;;;;;8.95;52.78;99264.81;19974104;29;20218;-85
2023/03/25 12:50:19;;;;;;;5.23;0.87;;;;;;;9.14;48.35;99273.41;19968666;29;20212;-83
2023/03/25 13:00:40;;;;;;;5.43;0.77;;;;;;;9.64;48.08;99252.28;19975428;29;20494;-83
2023/03/25 13:10:54;;;;;;;4.30;0.80;;;;;;;9.00;48.25;99248.50;20051745;29;20191;-84
2023/03/25 13:21:04;;;;;;;4.77;1.70;;;;;;;9.41;46.37;99247.22;19980454;29;20269;-84
2023/03/25 13:31:18;;;;;;;9.03;1.20;;;;;;;9.86;45.82;99237.53;19972978;29;20200;-83
2023/03/25 13:41:33;;;;;;;7.47;1.30;;;;;;;9.45;45.26;99248.13;19964185;29;20608;-84
2023/03/25 13:51:35;;;;;;;5.60;0.90;;;;;;;7.80;56.99;99279.22;19981015;29;20211;-83
2023/03/25 14:01:51;;;;;;;5.30;1.00;;;;;;;9.03;54.74;99275.94;20035526;29;20626;-83
2023/03/25 14:12:09;;;;;;;3.60;1.30;;;;;;;8.22;55.04;99279.00;19991500;29;20216;-84
2023/03/25 14:22:17;;;;;;;3.30;0.60;;;;;;;8.04;53.25;99295.28;19961010;29;20292;-82
2023/03/25 14:32:19;;;;;;;3.03;0.40;;;;;;;8.77;51.44;99301.69;19958635;29;20249;-82
2023/03/25 14:42:23;;;;;;;5.53;0.80;;;;;;;8.32;52.78;99315.06;19975296;29;20666;-85
2023/03/25 14:52:37;;;;;;;4.75;0.85;;;;;;;7.13;61.22;99350.56;20031118;29;20227;-84
2023/03/25 15:02:41;;;;;;;2.97;0.60;;;;;;;6.80;65.35;99330.06;20032990;29;20253;-83
2023/03/25 15:12:43;;;;;;;1.73;0.43;;;;;;;7.27;59.72;99311.81;20015333;29;20676;-84
2023/03/25 15:23:17;;;;;;;2.40;0.30;;;;;;;7.59;57.75;99323.41;20031011;29;20239;-86
2023/03/25 15:33:49;;;;;;;3.17;0.30;;;;;;;7.74;60.38;99325.56;20045677;29;20633;-85
2023/03/25 15:43:54;;;;;;;2.13;0.60;;;;;;;7.38;59.67;99310.22;20024337;29;20594;-83
2023/03/25 15:54:07;;;;;;;2.60;0.70;;;;;;;7.10;60.60;99303.53;19956147;29;20231;-85
2023/03/25 16:04:15;;;;;;;3.27;0.70;;;;;;;7.96;57.44;99313.06;19944946;29;20200;-83
2023/03/25 16:14:23;;;;;;;3.80;1.23;;;;;;;7.41;58.33;99315.13;19917142;29;20228;-84
2023/03/25 16:24:32;;;;;;;5.03;1.90;;;;;;;7.65;57.90;99311.59;19937084;29;20534;-84
2023/03/25 16:34:36;;;;;;;6.20;1.30;;;;;;;8.11;55.68;99316.03;19943012;29;20316;-84
2023/03/25 16:44:46;;;;;;;5.37;1.37;;;;;;;7.68;56.08;99321.34;19949196;29;20200;-86
2023/03/25 16:54:51;;;;;;;8.10;1.30;;;;;;;7.38;58.27;99326.25;19937237;29;20364;-83
2023/03/25 17:05:12;;;;;;;4.30;1.10;;;;;;;8.42;54.97;99351.16;19958188;29;20280;-86
2023/03/25 17:15:15;;;;;;;5.03;1.63;;;;;;;7.84;57.21;99353.22;19955921;29;20227;-84
2023/03/25 17:25:31;;;;;;;12.53;1.90;;;;;;;7.59;57.24;99351.47;19942568;29;20537;-82
2023/03/25 17:35:33;;;;;;;51.50;33.90;;;;;;;8.05;55.87;99358.75;19932235;29;20579;-81
2023/03/25 17:45:36;;;;;;;7.77;2.03;;;;;;;7.52;60.74;99380.13;19933576;29;20230;-82
2023/03/25 17:55:38;;;;;;;12.50;3.57;;;;;;;7.23;61.82;99408.31;19938942;29;20219;-82
2023/03/25 18:05:41;;;;;;;8.27;1.83;;;;;;;7.20;61.42;99435.06;19936674;29;20200;-82
2023/03/25 18:15:43;;;;;;;8.40;1.60;;;;;;;6.84;60.92;99444.03;19933939;29;20249;-82
2023/03/25 18:25:46;;;;;;;6.57;1.43;;;;;;;7.44;58.45;99435.19;19953218;29;20239;-85
2023/03/25 18:35:51;;;;;;;6.13;1.80;;;;;;;7.75;57.76;99439.56;19955018;29;20288;-85
2023/03/25 18:45:54;;;;;;;8.90;1.97;;;;;;;7.31;59.10;99441.91;19941662;29;20195;-82
2023/03/25 18:55:59;;;;;;;2.63;1.67;;;;;;;7.45;57.72;99458.50;19935730;29;20377;-83
2023/03/25 19:06:04;;;;;;;6.07;1.40;;;;;;;6.97;58.34;99470.19;19940124;29;20260;-84
2023/03/25 19:16:07;;;;;;;5.17;1.37;;;;;;;7.69;55.89;99469.06;19936017;29;20227;-84
2023/03/25 19:26:11;;;;;;;9.57;1.73;;;;;;;7.81;56.15;99449.44;19926331;29;20264;-83
2023/03/25 19:36:14;;;;;;;8.90;1.87;;;;;;;6.97;58.33;99447.75;19949305;29;20323;-82
2023/03/25 19:46:18;;;;;;;9.07;1.67;;;;;;;7.41;57.15;99480.81;19945793;29;20701;-84
2023/03/25 19:56:20;;;;;;;4.67;1.40;;;;;;;6.18;64.49;99526.94;19944848;29;20251;-85
2023/03/25 20:06:22;;;;;;;7.77;2.13;;;;;;;7.07;62.16;99520.34;19930837;29;20208;-83
2023/03/25 20:16:27;;;;;;;5.03;1.27;;;;;;;6.66;63.45;99533.06;19928457;29;20251;-85
2023/03/25 20:26:29;;;;;;;4.67;1.53;;;;;;;6.27;62.83;99519.31;19944991;29;20250;-87
2023/03/25 20:36:32;;;;;;;7.03;2.13;;;;;;;6.77;62.13;99527.09;19958016;29;20227;-86
2023/03/25 20:46:34;;;;;;;8.60;2.27;;;;;;;7.39;60.55;99525.25;19961852;29;20547;-86
2023/03/25 20:56:37;;;;;;;7.63;2.47;;;;;;;7.36;61.34;99530.72;19942230;29;20228;-84
2023/03/25 21:06:40;;;;;;;5.93;1.43;;;;;;;7.52;60.09;99539.38;19970172;29;20256;-89
2023/03/25 21:16:42;;;;;;;6.93;1.90;;;;;;;6.98;60.76;99544.81;19969112;29;20227;-88
2023/03/25 21:26:44;;;;;;;3.07;0.83;;;;;;;6.84;59.59;99556.25;19936044;29;20215;-89
2023/03/25 21:36:47;;;;;;;7.63;1.30;;;;;;;6.44;61.55;99572.53;19947958;29;20327;-89
2023/03/25 21:46:49;;;;;;;5.37;1.50;;;;;;;6.55;62.30;99570.22;19954050;29;20535;-84
2023/03/25 21:56:55;;;;;;;1.53;0.30;;;;;;;6.35;61.79;99586.56;19963572;29;20227;-89
2023/03/25 22:06:58;;;;;;;1.23;0.37;;;;;;;6.99;59.68;99588.53;19945411;29;20207;-89
2023/03/25 22:17:00;;;;;;;1.80;0.53;;;;;;;6.99;60.00;99591.34;19966583;29;20534;-84
2023/03/25 22:27:02;;;;;;;3.73;1.07;;;;;;;7.06;59.98;99611.31;19942753;29;20204;-88
2023/03/25 22:37:06;;;;;;;2.43;0.60;;;;;;;6.60;61.73;99607.31;19937563;29;20228;-88
2023/03/25 22:47:08;;;;;;;3.13;0.63;;;;;;;6.34;61.00;99615.75;19948913;29;20491;-88
2023/03/25 22:57:11;;;;;;;1.00;0.23;;;;;;;6.38;60.57;99616.75;19941816;29;20570;-87
2023/03/25 23:07:14;;;;;;;0.67;0.30;;;;;;;6.15;62.15;99636.88;19942338;29;20204;-87
2023/03/25 23:17:17;;;;;;;3.40;0.30;;;;;;;5.84;61.95;99640.63;19962876;29;20236;-85
2023/03/25 23:27:19;;;;;;;1.50;0.23;;;;;;;6.54;61.09;99636.69;19940662;29;20233;-87
2023/03/25 23:37:21;;;;;;;2.07;0.43;;;;;;;6.23;61.54;99642.47;19950362;29;20276;-87
2023/03/25 23:47:24;;;;;;;1.57;0.90;;;;;;;6.56;60.49;99634.41;19926897;29;20200;-86
2023/03/25 23:57:27;;;;;;;3.67;1.23;;;;;;;6.67;60.28;99646.91;19939390;29;20232;-87
